EmailTwitter


Surface observations / United Kingdom / EGTE (03839)

Regions: Quebec | Canada | USA | Europe | France | UK | Elsewhere
Station
Display
Info & Location for EGTE (03839) | Help decoding METAR

Weather Conditions observed on 2019/10/22 at 19:20 UTC at EXETER AIRPORT, UK (EGTE)

Obstruction(s) to Vision: shallow fog.

Temperature: 8.0 Celsius.

Dewpoint: 7.0 Celsius.

Relative Humidity: 93%

Winds: Northeast at 2 km/h or 1 knots.

Mean Sea level Pressure: 102.10 kilopascals.

Horizontal visibility: 6.21 statute miles or 9.94 kilometers.

Coded METAR:

EGTE 221920Z 05001KT 9999 MIFG NSC 08/07 Q1021=